createdAt,value
2018-11-27T00:02:36.946Z,86.75
2018-11-27T00:07:31.418Z,86.68
2018-11-27T00:12:25.921Z,87.01
2018-11-27T00:17:20.390Z,86.04
2018-11-27T00:22:14.894Z,86.35
2018-11-27T00:27:09.337Z,85.67
2018-11-27T00:32:03.831Z,87.52
2018-11-27T00:36:58.289Z,87.05
2018-11-27T00:41:52.710Z,86.61
2018-11-27T00:46:47.119Z,87.62
2018-11-27T00:51:41.571Z,88.60
2018-11-27T00:56:35.995Z,88.79
2018-11-27T01:01:30.424Z,88.39
2018-11-27T01:06:24.873Z,87.79
2018-11-27T01:11:19.290Z,88.80
2018-11-27T01:16:13.774Z,89.17
2018-11-27T01:21:08.238Z,88.92
2018-11-27T01:26:02.713Z,88.53
2018-11-27T01:30:57.111Z,88.47
2018-11-27T01:35:51.570Z,89.44
2018-11-27T01:40:45.995Z,89.38
2018-11-27T01:45:40.412Z,89.96
2018-11-27T01:50:34.978Z,88.98
2018-11-27T01:55:29.455Z,88.70
2018-11-27T02:00:26.023Z,87.58
2018-11-27T02:05:20.586Z,88.24
2018-11-27T02:10:15.089Z,89.07
2018-11-27T02:15:13.909Z,87.11
2018-11-27T02:20:10.758Z,87.55
2018-11-27T02:25:07.810Z,87.86
2018-11-27T02:30:02.302Z,86.74
2018-11-27T02:34:56.814Z,87.26
2018-11-27T02:39:51.238Z,87.75
2018-11-27T02:44:45.762Z,88.10
2018-11-27T02:49:40.170Z,87.94
2018-11-27T02:54:34.620Z,89.29
2018-11-27T02:59:29.083Z,89.37
2018-11-27T03:04:23.572Z,88.32
2018-11-27T03:09:18.070Z,88.46
2018-11-27T03:14:12.553Z,88.26
2018-11-27T03:19:07.085Z,88.97
2018-11-27T03:24:01.592Z,88.49
2018-11-27T03:28:56.102Z,89.67
2018-11-27T03:33:50.635Z,88.73
2018-11-27T03:38:45.228Z,87.66
2018-11-27T03:43:39.689Z,86.15
2018-11-27T03:48:34.147Z,87.99
2018-11-27T03:53:28.675Z,87.28
2018-11-27T03:58:23.148Z,87.00
2018-11-27T04:03:17.708Z,87.60
2018-11-27T04:08:12.186Z,85.83
2018-11-27T04:13:06.798Z,86.50
2018-11-27T04:18:01.248Z,88.10
2018-11-27T04:22:55.674Z,88.45
2018-11-27T04:27:50.143Z,87.71
2018-11-27T04:32:44.784Z,87.53
2018-11-27T04:37:39.268Z,87.54
2018-11-27T04:42:33.761Z,85.46
2018-11-27T04:47:28.332Z,86.12
2018-11-27T04:52:22.890Z,84.69
2018-11-27T04:57:17.406Z,85.82
2018-11-27T05:02:11.974Z,84.90
2018-11-27T05:07:07.031Z,85.66
2018-11-27T05:12:01.540Z,86.41
2018-11-27T05:16:56.416Z,86.59
2018-11-27T05:21:51.002Z,87.71
2018-11-27T05:26:45.602Z,88.08
2018-11-27T05:31:40.292Z,87.51
2018-11-27T05:36:34.939Z,88.13
2018-11-27T05:41:29.447Z,88.06
2018-11-27T05:46:24.041Z,88.66
2018-11-27T05:51:18.576Z,89.12
2018-11-27T05:56:13.151Z,88.74
2018-11-27T06:01:08.021Z,88.59
2018-11-27T06:06:02.577Z,87.95
2018-11-27T06:10:57.086Z,88.04
2018-11-27T06:15:51.617Z,87.80
2018-11-27T06:20:46.986Z,87.51
2018-11-27T06:25:41.659Z,87.45
2018-11-27T06:30:36.759Z,87.67
2018-11-27T06:35:42.329Z,87.38
2018-11-27T06:40:37.082Z,87.17
2018-11-27T06:45:31.730Z,86.47
2018-11-27T06:50:26.348Z,87.31
2018-11-27T06:55:24.554Z,87.41
2018-11-27T07:00:25.201Z,86.87
2018-11-27T07:05:24.050Z,85.73
2018-11-27T07:10:24.682Z,86.42
2018-11-27T07:15:22.220Z,86.76
2018-11-27T07:20:16.831Z,86.76
2018-11-27T07:25:14.864Z,87.50
2018-11-27T07:30:17.035Z,87.78
2018-11-27T07:35:13.610Z,87.67
2018-11-27T07:40:22.146Z,87.87
2018-11-27T07:45:20.239Z,87.62
2018-11-27T07:50:15.915Z,86.93
2018-11-27T07:55:12.605Z,85.79
2018-11-27T08:00:23.893Z,86.22
2018-11-27T08:05:24.573Z,86.36
2018-11-27T08:10:21.072Z,87.44
2018-11-27T08:15:25.039Z,86.74
2018-11-27T08:20:24.487Z,87.65
2018-11-27T08:25:19.929Z,86.57
2018-11-27T08:30:21.961Z,86.79
2018-11-27T08:35:27.620Z,86.57
2018-11-27T08:40:24.755Z,86.57
2018-11-27T08:45:21.853Z,87.03
2018-11-27T08:50:22.190Z,85.94
2018-11-27T08:55:20.359Z,85.34
2018-11-27T09:00:24.146Z,85.94
2018-11-27T09:05:19.107Z,85.48
2018-11-27T09:10:24.211Z,87.33
2018-11-27T09:15:20.639Z,85.59
2018-11-27T09:20:15.770Z,84.87
2018-11-27T09:25:13.248Z,85.72
2018-11-27T09:30:19.426Z,86.02
2018-11-27T09:35:18.987Z,85.05
2018-11-27T09:40:19.405Z,84.16
2018-11-27T09:45:26.764Z,82.16
2018-11-27T09:50:25.669Z,83.11
2018-11-27T09:55:23.575Z,83.98
2018-11-27T10:00:33.417Z,83.92
2018-11-27T10:05:29.310Z,83.71
2018-11-27T10:10:25.958Z,82.97
2018-11-27T10:15:23.870Z,82.28
2018-11-27T10:20:21.365Z,82.18
2018-11-27T10:25:16.180Z,82.38
2018-11-27T10:30:19.570Z,81.03
2018-11-27T10:35:46.794Z,80.06
2018-11-27T10:40:41.670Z,80.54
2018-11-27T10:45:36.554Z,80.95
2018-11-27T10:50:32.126Z,81.30
2018-11-27T10:55:27.239Z,81.51
2018-11-27T11:00:30.623Z,80.58
2018-11-27T11:05:40.904Z,78.21
2018-11-27T11:10:35.514Z,76.90
2018-11-27T11:15:30.051Z,77.60
2018-11-27T11:20:25.238Z,77.08
2018-11-27T11:25:23.094Z,77.28
2018-11-27T11:30:19.999Z,76.10
2018-11-27T11:35:14.765Z,76.56
2018-11-27T11:40:18.936Z,77.83
2018-11-27T11:45:14.414Z,77.42
2018-11-27T11:50:15.535Z,77.76
2018-11-27T11:55:12.556Z,77.44
2018-11-27T12:00:11.634Z,78.20
2018-11-27T12:05:07.713Z,77.38
2018-11-27T12:10:02.418Z,78.76
2018-11-27T12:14:56.973Z,77.54
2018-11-27T12:19:51.854Z,76.98
2018-11-27T12:24:46.648Z,78.76
2018-11-27T12:29:41.147Z,78.46
2018-11-27T12:34:36.370Z,77.43
2018-11-27T12:39:47.165Z,77.85
2018-11-27T12:44:42.879Z,80.50
2018-11-27T12:49:39.991Z,80.98
2018-11-27T12:54:35.013Z,76.99
2018-11-27T12:59:32.584Z,78.02
2018-11-27T13:04:27.528Z,79.70
2018-11-27T13:09:22.017Z,79.03
2018-11-27T13:14:16.523Z,79.78
2018-11-27T13:19:11.264Z,80.73
2018-11-27T13:24:06.166Z,81.31
2018-11-27T13:29:00.952Z,81.42
2018-11-27T13:34:06.629Z,81.15
2018-11-27T13:39:18.049Z,81.51
2018-11-27T13:44:12.729Z,81.12
2018-11-27T13:49:07.478Z,81.36
2018-11-27T13:54:16.609Z,80.08
2018-11-27T13:59:12.260Z,80.33
2018-11-27T14:04:16.766Z,80.41
2018-11-27T14:09:12.419Z,81.55
2018-11-27T14:14:09.956Z,83.50
2018-11-27T14:19:04.863Z,83.25
2018-11-27T14:24:00.996Z,82.34
2018-11-27T14:28:55.566Z,81.83
2018-11-27T14:33:50.255Z,81.15
2018-11-27T14:38:45.247Z,82.56
2018-11-27T14:43:40.070Z,83.54
2018-11-27T14:48:35.112Z,81.84
2018-11-27T14:53:30.550Z,83.17
2018-11-27T14:58:25.525Z,82.16
2018-11-27T15:03:20.314Z,82.18
2018-11-27T15:08:15.063Z,83.89
2018-11-27T15:13:15.347Z,84.75
2018-11-27T15:18:18.850Z,82.74
2018-11-27T15:23:13.599Z,84.04
2018-11-27T15:28:08.375Z,84.51
2018-11-27T15:33:02.843Z,83.94
2018-11-27T15:37:58.390Z,82.92
2018-11-27T15:42:53.410Z,83.63
2018-11-27T15:47:48.227Z,83.95
2018-11-27T15:52:42.774Z,83.58
2018-11-27T15:57:37.542Z,83.84
2018-11-27T16:02:32.052Z,84.09
2018-11-27T16:07:26.534Z,83.23
2018-11-27T16:12:20.950Z,84.31
2018-11-27T16:17:15.474Z,83.77
2018-11-27T16:22:09.963Z,84.26
2018-11-27T16:27:04.933Z,84.54
2018-11-27T16:31:59.423Z,83.99
2018-11-27T16:36:53.905Z,85.02
2018-11-27T16:41:48.448Z,85.41
2018-11-27T16:46:42.868Z,85.04
2018-11-27T16:51:37.346Z,84.82
2018-11-27T16:56:31.818Z,85.11
2018-11-27T17:01:26.283Z,84.75
2018-11-27T17:06:20.746Z,84.38
2018-11-27T17:11:15.183Z,84.86
2018-11-27T17:16:09.688Z,84.20
2018-11-27T17:21:05.906Z,84.40
2018-11-27T17:26:04.030Z,84.55
2018-11-27T17:31:11.957Z,84.45
2018-11-27T17:36:09.462Z,84.80
2018-11-27T17:41:03.930Z,84.51
2018-11-27T17:45:58.446Z,84.94
2018-11-27T17:50:53.078Z,84.85
2018-11-27T17:55:47.979Z,84.31
2018-11-27T18:00:42.276Z,84.45
2018-11-27T18:05:36.807Z,85.29
2018-11-27T18:10:31.312Z,85.92
2018-11-27T18:15:25.742Z,85.42
2018-11-27T18:20:20.235Z,84.97
2018-11-27T18:25:19.789Z,85.17
2018-11-27T18:30:19.339Z,85.60
2018-11-27T18:35:16.608Z,85.41
2018-11-27T18:40:13.025Z,85.03
2018-11-27T18:45:24.318Z,84.86
2018-11-27T18:50:18.792Z,85.66
2018-11-27T18:55:15.134Z,85.41
2018-11-27T19:00:28.017Z,85.65
2018-11-27T19:05:22.527Z,85.29
2018-11-27T19:10:20.829Z,85.24
2018-11-27T19:15:49.590Z,85.40
2018-11-27T19:20:43.602Z,85.89
2018-11-27T19:25:38.026Z,85.98
2018-11-27T19:30:32.547Z,86.14
2018-11-27T19:35:26.935Z,86.11
2018-11-27T19:40:21.837Z,86.39
2018-11-27T19:45:21.111Z,86.60
2018-11-27T19:50:15.689Z,86.61
2018-11-27T19:55:14.474Z,86.01
2018-11-27T20:00:17.471Z,86.19
2018-11-27T20:05:14.770Z,86.29
2018-11-27T20:10:11.884Z,86.41
2018-11-27T20:15:11.511Z,86.30
2018-11-27T20:20:08.458Z,86.33
2018-11-27T20:25:03.023Z,85.94
2018-11-27T20:29:57.537Z,86.67
2018-11-27T20:34:51.930Z,86.70
2018-11-27T20:39:46.416Z,87.04
2018-11-27T20:44:40.940Z,86.99
2018-11-27T20:49:35.348Z,87.46
2018-11-27T20:54:29.803Z,87.97
2018-11-27T20:59:24.421Z,87.87
2018-11-27T21:04:18.859Z,87.97
2018-11-27T21:09:13.823Z,88.13
2018-11-27T21:14:08.375Z,87.94
2018-11-27T21:19:02.800Z,88.69
2018-11-27T21:23:57.255Z,88.38
2018-11-27T21:28:51.686Z,88.68
2018-11-27T21:33:46.153Z,89.10
2018-11-27T21:38:40.605Z,88.96
2018-11-27T21:43:35.017Z,89.10
2018-11-27T21:48:29.483Z,88.79
2018-11-27T21:53:23.888Z,88.18
2018-11-27T21:58:18.372Z,88.34
2018-11-27T22:03:13.416Z,89.03
2018-11-27T22:08:08.817Z,88.83
2018-11-27T22:13:03.235Z,89.04
2018-11-27T22:17:57.741Z,89.30
2018-11-27T22:22:52.195Z,89.18
2018-11-27T22:27:46.630Z,88.29
2018-11-27T22:32:42.502Z,88.06
2018-11-27T22:37:36.921Z,88.36
2018-11-27T22:42:31.367Z,89.43
2018-11-27T22:47:25.848Z,89.62
2018-11-27T22:52:20.318Z,88.63
2018-11-27T22:57:14.743Z,89.05
2018-11-27T23:02:09.202Z,89.66
2018-11-27T23:07:03.691Z,89.38
2018-11-27T23:11:58.127Z,89.26
2018-11-27T23:16:52.575Z,89.56
2018-11-27T23:21:46.971Z,88.83
2018-11-27T23:26:41.420Z,89.40
2018-11-27T23:31:35.914Z,89.68
2018-11-27T23:36:30.347Z,89.47
2018-11-27T23:41:24.822Z,89.59
2018-11-27T23:46:19.278Z,89.31
2018-11-27T23:51:13.693Z,89.85
2018-11-27T23:56:08.135Z,89.66
